Time;durP1;ratioP1;P1;durP2;ratioP2;P2;SDS_P1;SDS_P2;PMS_P1;PMS_P2;Temp;Humidity;BMP_temperature;BMP_pressure;BME280_temperature;BME280_humidity;BME280_pressure;Samples;Min_cycle;Max_cycle;Signal;HPM_P1;HPM_P2
2022/02/15 00:00:40;;;;;;;56.15;29.27;;;;;;;-2.24;65.12;101221.83;1652842;85;21020;-82
2022/02/15 00:03:06;;;;;;;52.65;28.67;;;;;;;-2.20;65.17;101224.81;1675883;84;21768;-82
2022/02/15 00:05:34;;;;;;;50.55;28.50;;;;;;;-2.19;65.23;101225.67;1702390;84;21515;-82
2022/02/15 00:08:01;;;;;;;54.42;29.00;;;;;;;-2.18;65.24;101223.50;1704166;84;21029;-82
2022/02/15 00:10:28;;;;;;;50.98;28.47;;;;;;;-2.17;65.22;101220.88;1680257;84;21413;-81
2022/02/15 00:12:54;;;;;;;53.42;27.77;;;;;;;-2.16;65.22;101223.88;1702391;84;21033;-82
2022/02/15 00:15:21;;;;;;;55.48;28.30;;;;;;;-2.17;65.24;101221.32;1703050;84;21829;-82
2022/02/15 00:17:48;;;;;;;50.43;28.35;;;;;;;-2.19;65.28;101213.58;1703894;84;21002;-82
2022/02/15 00:20:14;;;;;;;52.23;29.12;;;;;;;-2.18;65.34;101217.03;1703854;83;21508;-79
2022/02/15 00:22:41;;;;;;;55.55;29.72;;;;;;;-2.19;65.37;101214.88;1701565;84;21487;-82
2022/02/15 00:25:09;;;;;;;52.73;29.18;;;;;;;-2.18;65.39;101210.12;1689228;83;20977;-82
2022/02/15 00:27:36;;;;;;;54.95;30.25;;;;;;;-2.18;65.43;101204.94;1675917;85;21729;-82
2022/02/15 00:30:04;;;;;;;51.50;29.20;;;;;;;-2.17;65.46;101201.91;1681939;84;21056;-80
2022/02/15 00:32:31;;;;;;;54.10;28.92;;;;;;;-2.18;65.42;101200.20;1677306;84;20957;-80
2022/02/15 00:34:58;;;;;;;53.68;29.85;;;;;;;-2.19;65.42;101196.77;1675717;85;21172;-80
2022/02/15 00:37:24;;;;;;;53.73;30.05;;;;;;;-2.22;65.37;101195.52;1675982;85;21065;-80
2022/02/15 00:39:52;;;;;;;55.75;29.37;;;;;;;-2.24;65.46;101195.95;1676098;84;22227;-80
2022/02/15 00:42:19;;;;;;;54.65;29.85;;;;;;;-2.24;65.51;101189.92;1693410;84;20958;-81
2022/02/15 00:44:45;;;;;;;59.18;29.95;;;;;;;-2.26;65.50;101187.36;1697483;84;21018;-80
2022/02/15 00:47:12;;;;;;;55.45;29.90;;;;;;;-2.26;65.52;101181.34;1708240;81;21017;-80
2022/02/15 00:49:38;;;;;;;50.85;29.45;;;;;;;-2.24;65.60;101186.05;1715071;83;21474;-80
2022/02/15 00:52:06;;;;;;;51.10;30.02;;;;;;;-2.22;65.66;101179.11;1686434;85;21840;-80
2022/02/15 00:54:33;;;;;;;53.15;28.73;;;;;;;-2.19;65.72;101177.80;1690127;84;21042;-81
2022/02/15 00:57:00;;;;;;;61.02;29.42;;;;;;;-2.14;65.72;101177.27;1667713;83;21435;-80
2022/02/15 00:59:26;;;;;;;55.40;29.15;;;;;;;-2.13;65.71;101173.36;1721112;83;21080;-80
2022/02/15 01:01:53;;;;;;;52.78;29.10;;;;;;;-2.11;65.67;101166.90;1718738;82;21030;-80
2022/02/15 01:04:20;;;;;;;52.25;28.83;;;;;;;-2.12;65.67;101171.22;1692229;83;21554;-79
2022/02/15 01:10:48;;;;;;;50.08;26.12;;;;;;;-2.13;65.61;101165.59;1693721;82;21067;-80
2022/02/15 01:13:16;;;;;;;45.20;26.42;;;;;;;-2.17;65.58;101167.83;1692155;83;21570;-80
2022/02/15 01:15:44;;;;;;;45.35;25.92;;;;;;;-2.21;65.53;101170.05;1694464;83;21502;-81
2022/02/15 01:18:12;;;;;;;47.48;26.33;;;;;;;-2.26;65.55;101164.52;1692067;84;22671;-80
2022/02/15 01:20:39;;;;;;;47.20;26.40;;;;;;;-2.31;65.56;101164.16;1692259;84;20967;-80
2022/02/15 01:23:05;;;;;;;47.67;26.20;;;;;;;-2.37;65.59;101164.23;1711364;83;21110;-80
2022/02/15 01:25:33;;;;;;;48.02;27.13;;;;;;;-2.45;65.66;101164.77;1692095;84;21553;-80
2022/02/15 01:28:00;;;;;;;44.03;25.40;;;;;;;-2.50;65.73;101166.58;1692083;84;21023;-80
2022/02/15 01:30:27;;;;;;;48.78;25.88;;;;;;;-2.53;65.76;101163.16;1693386;83;22661;-80
2022/02/15 01:32:54;;;;;;;45.85;25.12;;;;;;;-2.58;65.73;101164.96;1691945;83;21073;-80
2022/02/15 01:35:21;;;;;;;42.05;25.00;;;;;;;-2.65;65.81;101166.31;1718630;83;21605;-80
2022/02/15 01:37:49;;;;;;;44.30;24.30;;;;;;;-2.70;65.93;101163.36;1720878;82;21022;-80
2022/02/15 01:40:16;;;;;;;44.83;24.27;;;;;;;-2.69;66.03;101164.66;1720169;83;21030;-80
2022/02/15 01:42:45;;;;;;;47.27;26.02;;;;;;;-2.65;66.09;101165.02;1705465;83;23181;-80
2022/02/15 01:45:12;;;;;;;42.35;25.05;;;;;;;-2.66;66.08;101167.64;1691926;84;20986;-81
2022/02/15 01:47:39;;;;;;;45.03;25.80;;;;;;;-2.72;66.07;101162.53;1680404;84;21397;-80
2022/02/15 01:50:08;;;;;;;50.55;27.00;;;;;;;-2.77;66.07;101165.19;1691688;82;20962;-80
2022/02/15 01:52:35;;;;;;;46.90;24.87;;;;;;;-2.82;66.10;101164.80;1719577;82;21030;-80
2022/02/15 01:55:05;;;;;;;53.33;27.02;;;;;;;-2.86;66.21;101161.41;1694453;84;22579;-80
2022/02/15 01:57:32;;;;;;;48.48;27.22;;;;;;;-2.85;66.28;101164.86;1682095;85;21455;-80
2022/02/15 02:00:11;;;;;;;50.92;26.85;;;;;;;-2.86;66.24;101164.44;1681580;85;21026;-80
2022/02/15 02:02:45;;;;;;;50.30;26.42;;;;;;;-2.90;66.22;101161.02;1683790;84;21043;-80
2022/02/15 02:08:01;;;;;;;47.10;27.13;;;;;;;-3.02;66.41;101163.30;1682140;85;21723;-80
2022/02/15 02:10:32;;;;;;;53.95;28.45;;;;;;;-3.04;66.49;101163.77;1658852;85;21027;-80
2022/02/15 02:13:00;;;;;;;51.58;27.15;;;;;;;-3.02;66.56;101164.60;1684854;84;21035;-80
2022/02/15 02:15:27;;;;;;;46.73;26.33;;;;;;;-3.04;66.57;101159.03;1682083;85;20987;-80
2022/02/15 02:18:05;;;;;;;44.33;25.88;;;;;;;-3.06;66.58;101166.81;1663297;85;21010;-80
2022/02/15 02:20:32;;;;;;;48.28;26.52;;;;;;;-3.10;66.64;101163.83;1692961;84;22041;-80
2022/02/15 02:22:59;;;;;;;53.52;25.75;;;;;;;-3.11;66.73;101165.14;1684962;84;20979;-80
2022/02/15 02:25:26;;;;;;;49.88;26.87;;;;;;;-3.10;66.79;101172.02;1682180;85;21054;-80
2022/02/15 02:27:54;;;;;;;45.70;24.70;;;;;;;-3.11;66.81;101171.16;1682042;85;21090;-79
2022/02/15 02:30:22;;;;;;;47.40;27.10;;;;;;;-3.12;66.84;101177.20;1698015;84;20975;-80
2022/02/15 02:32:52;;;;;;;53.48;26.57;;;;;;;-3.14;66.84;101172.93;1694489;84;21900;-80
2022/02/15 02:35:20;;;;;;;50.48;26.20;;;;;;;-3.19;66.91;101176.40;1683621;84;20992;-80
2022/02/15 02:37:47;;;;;;;52.20;27.15;;;;;;;-3.18;67.01;101170.83;1710780;84;21023;-80
2022/02/15 02:40:13;;;;;;;61.05;31.17;;;;;;;-3.17;67.04;101171.24;1710835;84;21463;-80
2022/02/15 02:42:41;;;;;;;162.30;66.40;;;;;;;-3.17;67.04;101175.12;1699454;84;20995;-80
2022/02/15 02:45:16;;;;;;;101.75;44.98;;;;;;;-3.17;67.01;101173.39;1682387;85;21862;-79
2022/02/15 02:47:45;;;;;;;;;;;;;;;-3.20;67.07;101170.81;1701833;83;21042;-80
2022/02/15 02:50:14;;;;;;;123.67;55.10;;;;;;;-3.23;67.13;101166.13;1680832;84;20165;-80
2022/02/15 02:52:40;;;;;;;98.52;45.03;;;;;;;-3.27;67.15;101166.61;1678718;84;21074;-80
2022/02/15 02:55:08;;;;;;;68.10;31.30;;;;;;;-3.30;67.14;101168.34;1687404;84;21031;-80
2022/02/15 02:57:35;;;;;;;59.33;28.10;;;;;;;-3.31;67.29;101170.51;1703446;84;22208;-80
2022/02/15 03:00:13;;;;;;;51.68;26.55;;;;;;;-3.27;67.47;101169.19;1689824;84;20956;-80
2022/02/15 03:02:41;;;;;;;54.48;26.95;;;;;;;-3.19;67.62;101166.50;1695255;84;20971;-80
2022/02/15 03:05:08;;;;;;;57.60;28.07;;;;;;;-3.10;67.71;101164.26;1679199;84;21019;-81
2022/02/15 03:07:35;;;;;;;53.25;26.57;;;;;;;-3.03;67.80;101164.18;1679016;84;21030;-79
2022/02/15 03:10:04;;;;;;;60.33;27.85;;;;;;;-2.96;67.82;101163.25;1703301;84;21789;-80
2022/02/15 03:12:30;;;;;;;58.38;27.52;;;;;;;-2.89;67.91;101170.51;1700600;84;20956;-79
2022/02/15 03:14:59;;;;;;;56.77;28.15;;;;;;;-2.81;67.96;101169.10;1701734;83;21113;-80
2022/02/15 03:17:25;;;;;;;52.08;26.97;;;;;;;-2.75;67.97;101171.19;1701688;84;21070;-80
2022/02/15 03:19:53;;;;;;;58.87;29.52;;;;;;;-2.71;67.93;101161.21;1701959;84;20976;-79
2022/02/15 03:22:22;;;;;;;43.70;23.57;;;;;;;-2.65;67.86;101166.76;1677300;84;21833;-80
2022/02/15 03:24:48;;;;;;;51.98;25.72;;;;;;;-2.59;67.85;101161.52;1699924;84;21216;-80
2022/02/15 03:27:15;;;;;;;47.48;24.47;;;;;;;-2.53;67.84;101160.13;1701621;84;21047;-79
2022/02/15 03:29:42;;;;;;;47.67;24.55;;;;;;;-2.47;67.82;101157.91;1698689;84;21267;-80
2022/02/15 03:32:09;;;;;;;53.75;27.42;;;;;;;-2.40;67.68;101155.67;1673499;85;21067;-79
2022/02/15 03:34:37;;;;;;;54.53;27.60;;;;;;;-2.36;67.53;101159.91;1678186;84;21817;-80
2022/02/15 03:37:05;;;;;;;56.30;28.55;;;;;;;-2.34;67.41;101159.00;1699610;84;21023;-79
2022/02/15 03:39:35;;;;;;;56.15;28.57;;;;;;;-2.32;67.33;101155.98;1677880;84;21098;-80
2022/02/15 03:44:53;;;;;;;62.60;30.23;;;;;;;-2.32;67.07;101158.57;1689536;83;21111;-80
2022/02/15 03:47:21;;;;;;;60.48;29.35;;;;;;;-2.32;66.99;101153.39;1673594;84;21842;-80
2022/02/15 03:49:47;;;;;;;63.45;29.87;;;;;;;-2.34;66.86;101160.30;1683596;84;21117;-80
2022/02/15 03:52:14;;;;;;;58.78;28.25;;;;;;;-2.37;66.75;101156.91;1677710;84;21024;-81
2022/02/15 03:54:43;;;;;;;69.12;29.60;;;;;;;-2.40;66.65;101159.55;1700603;84;20979;-80
2022/02/15 03:57:11;;;;;;;60.35;28.75;;;;;;;-2.47;66.58;101156.18;1701704;84;21039;-80
2022/02/15 03:59:38;;;;;;;62.35;30.23;;;;;;;-2.52;66.47;101158.39;1667513;85;21778;-80
2022/02/15 04:02:06;;;;;;;61.23;29.42;;;;;;;-2.61;66.42;101160.25;1689135;84;21034;-80
2022/02/15 04:04:32;;;;;;;52.75;26.55;;;;;;;-2.69;66.39;101161.22;1678144;84;20987;-80
2022/02/15 04:06:59;;;;;;;51.42;25.77;;;;;;;-2.76;66.41;101153.97;1701890;83;20972;-80
2022/02/15 04:09:25;;;;;;;47.25;24.90;;;;;;;-2.80;66.43;101155.30;1701641;84;21043;-80
2022/02/15 04:11:53;;;;;;;42.50;23.30;;;;;;;-2.89;66.48;101153.27;1700606;83;21828;-80
2022/02/15 04:14:21;;;;;;;53.80;27.27;;;;;;;-2.94;66.48;101158.91;1701313;84;20979;-80
2022/02/15 04:16:48;;;;;;;74.35;36.33;;;;;;;-3.04;66.45;101163.77;1677062;84;21474;-80
2022/02/15 04:19:17;;;;;;;77.80;36.85;;;;;;;-3.12;66.50;101163.42;1694839;84;21015;-80
2022/02/15 04:21:44;;;;;;;60.40;29.98;;;;;;;-3.21;66.54;101169.55;1701884;84;21047;-80
2022/02/15 04:24:11;;;;;;;51.40;26.65;;;;;;;-3.25;66.58;101173.05;1680156;84;21804;-80
2022/02/15 04:26:39;;;;;;;48.45;23.77;;;;;;;-3.30;66.66;101172.22;1673371;85;20972;-80
2022/02/15 04:29:06;;;;;;;48.55;23.90;;;;;;;-3.35;66.77;101161.95;1674294;84;21012;-79
2022/02/15 04:31:34;;;;;;;45.60;23.45;;;;;;;-3.36;66.85;101162.82;1686259;84;21486;-79
2022/02/15 04:34:01;;;;;;;43.13;23.57;;;;;;;-3.34;66.93;101164.09;1676071;84;21039;-80
2022/02/15 04:36:28;;;;;;;51.50;24.30;;;;;;;-3.34;67.01;101170.55;1673567;85;21793;-79
2022/02/15 04:38:56;;;;;;;63.10;30.30;;;;;;;-3.36;67.04;101163.26;1689960;84;21007;-79
2022/02/15 04:41:23;;;;;;;53.02;26.42;;;;;;;-3.40;67.08;101161.55;1689203;84;21518;-80
2022/02/15 04:43:51;;;;;;;52.60;25.80;;;;;;;-3.46;67.15;101159.47;1673699;84;21047;-80
2022/02/15 04:46:19;;;;;;;65.30;28.38;;;;;;;-3.50;67.23;101173.70;1684419;84;21612;-81
2022/02/15 04:48:46;;;;;;;95.77;38.45;;;;;;;-3.54;67.30;101175.46;1674197;84;21593;-80
2022/02/15 04:51:14;;;;;;;68.10;30.88;;;;;;;-3.59;67.38;101171.20;1685986;84;21157;-79
2022/02/15 04:53:41;;;;;;;68.30;31.17;;;;;;;-3.63;67.48;101171.67;1689701;84;20991;-83
2022/02/15 04:56:08;;;;;;;89.75;38.15;;;;;;;-3.66;67.50;101173.00;1673714;85;21007;-83
2022/02/15 04:58:35;;;;;;;168.62;59.55;;;;;;;-3.71;67.47;101169.58;1676279;84;21038;-80
2022/02/15 05:01:04;;;;;;;193.52;71.72;;;;;;;-3.73;67.47;101165.30;1670624;84;21871;-82
2022/02/15 05:03:35;;;;;;;100.33;43.30;;;;;;;-3.74;67.50;101168.33;1693408;84;21047;-82
2022/02/15 05:06:02;;;;;;;82.97;38.55;;;;;;;-3.76;67.54;101170.92;1677611;84;21620;-81
2022/02/15 05:08:30;;;;;;;73.42;36.95;;;;;;;-3.75;67.67;101167.91;1681306;83;21059;-78
2022/02/15 05:10:59;;;;;;;79.60;40.38;;;;;;;-3.73;67.84;101170.03;1683455;84;21546;-79
2022/02/15 05:13:28;;;;;;;78.50;43.73;;;;;;;-3.71;67.98;101168.73;1681164;84;21863;-78
2022/02/15 05:15:57;;;;;;;96.05;53.98;;;;;;;-3.69;68.12;101170.41;1681886;84;21565;-78
2022/02/15 05:18:26;;;;;;;111.62;61.80;;;;;;;-3.62;68.43;101167.36;1676215;84;21082;-76
2022/02/15 05:20:54;;;;;;;128.93;67.32;;;;;;;-3.55;68.68;101170.31;1682939;84;21066;-74
2022/02/15 05:23:21;;;;;;;121.47;66.25;;;;;;;-3.49;68.82;101171.09;1700484;84;21046;-78
2022/02/15 05:25:48;;;;;;;100.92;53.10;;;;;;;-3.44;68.84;101166.34;1700807;84;21789;-76
2022/02/15 05:28:24;;;;;;;73.33;36.93;;;;;;;-3.44;68.87;101172.36;1692946;83;21017;-78
2022/02/15 05:30:52;;;;;;;49.30;27.93;;;;;;;-3.44;68.91;101172.80;1685087;84;21058;-74
2022/02/15 05:33:20;;;;;;;50.75;26.15;;;;;;;-3.41;69.00;101172.33;1678628;84;21325;-73
2022/02/15 05:35:48;;;;;;;48.45;23.62;;;;;;;-3.36;69.08;101179.61;1679936;84;20992;-73
2022/02/15 05:38:16;;;;;;;41.70;22.65;;;;;;;-3.28;69.20;101189.84;1690997;84;22253;-82
2022/02/15 05:40:45;;;;;;;40.05;22.52;;;;;;;-3.21;69.26;101182.46;1687848;84;21027;-77
2022/02/15 05:43:14;;;;;;;39.53;20.02;;;;;;;-3.13;69.35;101187.55;1697971;84;21142;-78
2022/02/15 05:45:42;;;;;;;40.92;21.30;;;;;;;-3.05;69.37;101193.07;1702008;84;21444;-78
2022/02/15 05:48:19;;;;;;;38.90;18.67;;;;;;;-2.96;69.38;101194.27;1699516;83;21008;-76
2022/02/15 05:50:51;;;;;;;36.73;18.70;;;;;;;-2.89;69.39;101197.21;1699732;83;22235;-77
2022/02/15 05:53:24;;;;;;;38.85;19.35;;;;;;;-2.78;69.41;101198.82;1697169;84;21023;-77
2022/02/15 05:55:52;;;;;;;35.10;19.20;;;;;;;-2.68;69.35;101201.72;1701866;84;21173;-76
2022/02/15 05:58:20;;;;;;;31.90;17.90;;;;;;;-2.60;69.29;101204.62;1699580;84;21130;-78
2022/02/15 06:00:49;;;;;;;31.15;17.07;;;;;;;-2.52;69.24;101201.92;1680819;84;21007;-77
2022/02/15 06:06:01;;;;;;;33.55;17.92;;;;;;;-2.31;69.33;101197.80;1701654;84;21434;-78
2022/02/15 06:08:28;;;;;;;37.95;17.27;;;;;;;-2.18;69.34;101197.17;1697245;84;20992;-78
2022/02/15 06:10:57;;;;;;;34.08;18.73;;;;;;;-2.07;69.28;101197.02;1695560;83;21107;-78
2022/02/15 06:13:30;;;;;;;33.63;18.10;;;;;;;-1.98;69.23;101192.16;1673935;85;21011;-78
2022/02/15 06:15:57;;;;;;;31.35;16.20;;;;;;;-1.88;69.14;101197.17;1678622;84;22218;-79
2022/02/15 06:18:26;;;;;;;29.48;16.65;;;;;;;-1.82;69.05;101194.50;1676774;84;21027;-78
2022/02/15 06:20:55;;;;;;;27.35;15.75;;;;;;;-1.73;68.97;101198.68;1701640;84;21443;-77
2022/02/15 06:23:23;;;;;;;34.03;18.65;;;;;;;-1.64;68.85;101201.12;1685915;84;21004;-79
2022/02/15 06:25:51;;;;;;;32.42;17.77;;;;;;;-1.56;68.74;101191.47;1701323;84;21549;-79
2022/02/15 06:28:18;;;;;;;35.78;18.60;;;;;;;-1.48;68.59;101196.53;1686549;83;22638;-79
2022/02/15 06:30:46;;;;;;;32.55;17.52;;;;;;;-1.41;68.45;101196.84;1681092;84;21074;-79
2022/02/15 06:33:14;;;;;;;35.38;18.70;;;;;;;-1.32;68.30;101196.69;1698257;84;21180;-79
2022/02/15 06:35:44;;;;;;;30.52;17.17;;;;;;;-1.23;68.22;101193.94;1701656;83;21011;-79
2022/02/15 06:38:12;;;;;;;29.10;17.05;;;;;;;-1.13;68.08;101198.96;1691013;83;20995;-79
2022/02/15 06:40:38;;;;;;;26.70;16.12;;;;;;;-1.05;67.87;101195.34;1673548;85;21847;-79
2022/02/15 06:43:07;;;;;;;33.45;17.42;;;;;;;-0.95;67.73;101196.03;1674014;85;21470;-79
2022/02/15 06:45:35;;;;;;;27.67;16.17;;;;;;;-0.87;67.56;101195.00;1692026;84;21044;-79
2022/02/15 06:48:02;;;;;;;37.25;18.55;;;;;;;-0.78;67.32;101191.34;1680934;84;21071;-79
2022/02/15 06:50:31;;;;;;;40.17;19.90;;;;;;;-0.70;67.12;101192.05;1718150;81;20998;-79
2022/02/15 06:53:11;;;;;;;38.90;20.15;;;;;;;-0.61;66.95;101188.42;1703238;83;21895;-79
2022/02/15 06:55:41;;;;;;;39.30;21.40;;;;;;;-0.52;66.57;101182.20;1717579;83;20958;-79
2022/02/15 06:58:08;;;;;;;42.15;22.90;;;;;;;-0.42;66.30;101182.41;1704517;83;21552;-79
2022/02/15 07:00:34;;;;;;;37.13;20.52;;;;;;;-0.33;66.04;101177.03;1704158;83;21124;-79
2022/02/15 07:03:01;;;;;;;39.23;20.52;;;;;;;-0.26;65.81;101178.61;1718365;83;21374;-79
2022/02/15 07:05:28;;;;;;;38.08;20.23;;;;;;;-0.15;65.58;101175.77;1701822;83;22642;-77
2022/02/15 07:07:55;;;;;;;36.60;20.05;;;;;;;-0.04;65.45;101176.37;1700174;83;21089;-79
2022/02/15 07:10:23;;;;;;;37.00;19.12;;;;;;;0.04;65.04;101171.02;1703809;83;21101;-79
2022/02/15 07:12:52;;;;;;;35.28;18.70;;;;;;;0.09;64.72;101173.89;1714841;83;21094;-80
2022/02/15 07:15:24;;;;;;;36.42;18.45;;;;;;;0.18;64.51;101174.12;1702960;83;21575;-79
2022/02/15 07:17:53;;;;;;;35.40;17.32;;;;;;;0.25;64.22;101167.45;1709445;83;21537;-79
2022/02/15 07:20:24;;;;;;;33.48;18.37;;;;;;;0.31;63.98;101166.46;1706872;83;21078;-79
2022/02/15 07:22:55;;;;;;;33.23;18.05;;;;;;;0.38;63.78;101168.00;1687955;84;21548;-78
2022/02/15 07:25:23;;;;;;;31.90;18.00;;;;;;;0.45;63.63;101162.20;1712203;83;21030;-79
2022/02/15 07:27:52;;;;;;;32.13;17.80;;;;;;;0.51;63.40;101164.22;1716829;83;20978;-79
2022/02/15 07:30:18;;;;;;;31.20;17.75;;;;;;;0.61;63.16;101168.73;1718727;83;21773;-79
2022/02/15 07:32:58;;;;;;;34.05;17.42;;;;;;;0.69;63.19;101169.39;1702466;83;21081;-75
2022/02/15 07:35:26;;;;;;;32.05;18.77;;;;;;;0.80;63.00;101167.81;1693560;83;21047;-74
2022/02/15 07:37:52;;;;;;;33.08;18.50;;;;;;;0.90;62.99;101166.67;1687779;83;21612;-83
2022/02/15 07:40:22;;;;;;;32.13;17.25;;;;;;;1.02;62.78;101174.13;1691947;83;21475;-84
2022/02/15 07:42:49;;;;;;;30.77;17.07;;;;;;;1.14;62.57;101171.19;1709598;83;21812;-79
2022/02/15 07:45:20;;;;;;;30.35;16.87;;;;;;;1.26;62.24;101171.77;1720823;83;21027;-82
2022/02/15 07:47:49;;;;;;;30.62;15.78;;;;;;;1.36;62.01;101165.40;1721073;83;21018;-79
2022/02/15 07:50:18;;;;;;;23.50;13.85;;;;;;;1.43;61.74;101163.85;1699195;83;21074;-79
2022/02/15 07:52:47;;;;;;;24.18;13.65;;;;;;;1.52;61.67;101160.13;1693545;83;21580;-79
2022/02/15 07:55:14;;;;;;;25.85;13.70;;;;;;;1.60;61.29;101164.66;1691896;84;22274;-80
2022/02/15 07:57:41;;;;;;;23.12;13.65;;;;;;;1.67;60.99;101165.34;1691899;84;20982;-72
2022/02/15 08:00:10;;;;;;;30.20;15.65;;;;;;;1.76;61.00;101165.07;1693756;83;21073;-72
2022/02/15 08:02:41;;;;;;;29.15;15.85;;;;;;;1.87;60.82;101168.64;1703084;83;21093;-75
2022/02/15 08:05:10;;;;;;;32.08;17.77;;;;;;;1.97;60.66;101160.95;1700785;83;21022;-75
2022/02/15 08:07:38;;;;;;;29.75;15.78;;;;;;;2.08;60.51;101161.45;1697923;83;22555;-77
2022/02/15 08:10:07;;;;;;;26.55;13.10;;;;;;;2.19;60.46;101162.41;1706679;83;21031;-77
2022/02/15 08:12:36;;;;;;;23.85;12.80;;;;;;;2.29;60.10;101162.52;1699659;83;21524;-77
2022/02/15 08:15:03;;;;;;;25.17;13.22;;;;;;;2.39;59.76;101162.61;1696516;81;21470;-77
2022/02/15 08:17:32;;;;;;;28.87;13.13;;;;;;;2.49;59.42;101160.55;1697538;83;21153;-79
2022/02/15 08:19:59;;;;;;;26.85;13.05;;;;;;;2.56;58.82;101156.84;1704789;83;21802;-78
2022/02/15 08:22:26;;;;;;;28.73;13.50;;;;;;;2.64;58.65;101159.20;1678745;83;21042;-78
2022/02/15 08:24:52;;;;;;;25.37;13.20;;;;;;;2.70;58.43;101152.45;1705854;83;21014;-78
2022/02/15 08:27:19;;;;;;;26.95;13.93;;;;;;;2.78;58.30;101155.20;1706941;83;21060;-79
2022/02/15 08:29:46;;;;;;;24.60;13.18;;;;;;;2.83;57.45;101157.20;1707559;83;21018;-75
2022/02/15 08:32:15;;;;;;;25.25;12.93;;;;;;;2.85;56.88;101154.08;1702049;82;21820;-80
2022/02/15 08:34:42;;;;;;;27.37;14.25;;;;;;;2.91;56.75;101154.79;1696277;83;21069;-74
2022/02/15 08:37:08;;;;;;;26.68;12.28;;;;;;;2.98;56.68;101150.58;1701506;83;21086;-75
2022/02/15 08:39:36;;;;;;;37.83;12.00;;;;;;;3.05;56.49;101150.77;1692187;84;21100;-74
2022/02/15 08:42:05;;;;;;;31.97;10.58;;;;;;;3.13;56.28;101150.05;1706736;83;21008;-75
2022/02/15 08:44:34;;;;;;;25.02;11.25;;;;;;;3.22;56.08;101148.01;1692856;83;21050;-75
2022/02/15 08:47:05;;;;;;;26.73;14.15;;;;;;;3.27;55.87;101142.14;1709348;83;20970;-74
2022/02/15 08:49:33;;;;;;;30.20;14.55;;;;;;;3.31;55.93;101141.14;1704366;83;21430;-74
2022/02/15 08:51:59;;;;;;;24.77;14.50;;;;;;;3.41;56.52;101138.13;1705813;83;21105;-74
2022/02/15 08:54:26;;;;;;;31.52;15.72;;;;;;;3.57;56.55;101137.53;1701465;83;21049;-74
2022/02/15 08:56:53;;;;;;;25.92;13.48;;;;;;;3.64;56.39;101139.00;1714036;83;21830;-74
2022/02/15 08:59:20;;;;;;;33.55;12.90;;;;;;;3.70;55.80;101133.09;1684617;81;20969;-74
2022/02/15 09:01:48;;;;;;;34.75;13.60;;;;;;;3.77;55.12;101123.27;1707242;81;21030;-73
2022/02/15 09:04:16;;;;;;;32.38;13.48;;;;;;;3.85;54.95;101123.79;1692199;84;21069;-75
2022/02/15 09:06:42;;;;;;;27.65;13.95;;;;;;;3.90;54.50;101119.70;1712030;83;20990;-78
2022/02/15 09:09:10;;;;;;;34.48;17.02;;;;;;;3.93;54.67;101117.81;1666791;85;21859;-75
2022/02/15 09:11:41;;;;;;;32.35;17.40;;;;;;;3.94;55.17;101113.43;1699428;83;21197;-72
2022/02/15 09:14:08;;;;;;;33.65;16.93;;;;;;;3.96;55.63;101119.02;1703009;83;21666;-76
2022/02/15 09:16:35;;;;;;;27.50;16.20;;;;;;;4.05;55.80;101114.30;1686336;84;21047;-77
2022/02/15 09:19:03;;;;;;;31.77;16.50;;;;;;;4.13;55.90;101115.70;1695217;83;20967;-76
2022/02/15 09:21:29;;;;;;;23.57;14.53;;;;;;;4.19;55.65;101102.38;1722704;83;22224;-75
2022/02/15 09:23:56;;;;;;;25.00;15.32;;;;;;;4.28;55.55;101103.77;1719271;83;21018;-83
2022/02/15 09:26:22;;;;;;;22.95;14.15;;;;;;;4.28;55.51;101104.62;1701776;83;21059;-72
2022/02/15 09:28:49;;;;;;;22.15;14.15;;;;;;;4.33;55.33;101104.41;1696212;83;21058;-76
2022/02/15 09:31:15;;;;;;;22.35;13.90;;;;;;;4.29;55.57;101098.92;1697300;83;21091;-74
2022/02/15 09:33:42;;;;;;;30.50;14.28;;;;;;;4.33;55.73;101101.80;1692255;84;21880;-74
2022/02/15 09:36:09;;;;;;;25.15;14.65;;;;;;;4.43;55.79;101099.18;1717212;83;20994;-77
2022/02/15 09:38:36;;;;;;;23.12;14.23;;;;;;;4.50;55.44;101096.70;1717516;83;21023;-71
2022/02/15 09:41:07;;;;;;;25.15;14.47;;;;;;;4.54;55.59;101087.83;1705071;81;20967;-71
2022/02/15 09:43:36;;;;;;;25.68;14.55;;;;;;;4.50;55.35;101091.94;1709770;83;20983;-71
2022/02/15 09:46:03;;;;;;;25.60;14.65;;;;;;;4.41;55.39;101077.94;1710333;83;21850;-79
2022/02/15 09:48:29;;;;;;;26.23;14.87;;;;;;;4.33;55.49;101081.33;1719710;83;20965;-68
2022/02/15 09:50:58;;;;;;;30.20;15.68;;;;;;;4.28;55.78;101078.92;1691511;83;21090;-77
2022/02/15 09:53:25;;;;;;;24.50;14.58;;;;;;;4.29;55.94;101075.39;1693719;83;21471;-72
2022/02/15 09:55:52;;;;;;;21.93;13.55;;;;;;;4.46;56.05;101075.53;1692029;84;21006;-72
2022/02/15 09:58:18;;;;;;;24.47;13.25;;;;;;;4.63;55.65;101070.01;1711468;83;21903;-73
2022/02/15 10:00:46;;;;;;;25.85;14.15;;;;;;;4.80;55.13;101060.96;1707164;83;21082;-74
2022/02/15 10:03:15;;;;;;;23.25;14.00;;;;;;;4.98;55.21;101065.38;1715350;83;20974;-73
2022/02/15 10:05:49;;;;;;;18.67;10.88;;;;;;;5.22;54.72;101056.88;1709406;83;21007;-73
2022/02/15 10:08:17;;;;;;;;;;;;;;;5.43;53.83;101050.63;1698309;83;21133;-73
2022/02/15 10:10:45;;;;;;;21.50;12.20;;;;;;;5.58;52.88;101052.97;1697601;83;20379;-73
2022/02/15 10:13:14;;;;;;;18.17;10.70;;;;;;;5.56;52.20;101045.64;1720816;83;20970;-73
2022/02/15 10:15:42;;;;;;;18.10;10.75;;;;;;;5.58;52.17;101042.48;1695797;83;20974;-73
2022/02/15 10:18:22;;;;;;;24.52;12.47;;;;;;;5.61;52.02;101044.98;1691995;84;21462;-72
2022/02/15 10:20:56;;;;;;;22.73;12.47;;;;;;;5.63;51.68;101039.19;1702466;83;21424;-73
2022/02/15 10:23:28;;;;;;;20.88;12.00;;;;;;;5.72;52.33;101037.91;1694184;83;22676;-73
2022/02/15 10:25:57;;;;;;;18.70;11.45;;;;;;;5.83;51.19;101036.91;1715751;83;21078;-73
2022/02/15 10:28:29;;;;;;;21.48;11.75;;;;;;;5.88;51.51;101034.89;1669654;83;20979;-74
2022/02/15 10:30:58;;;;;;;18.48;11.65;;;;;;;6.04;51.52;101037.65;1705933;83;21282;-73
2022/02/15 10:33:32;;;;;;;20.00;11.75;;;;;;;6.20;51.11;101032.03;1708661;82;21100;-73
2022/02/15 10:36:06;;;;;;;19.17;11.75;;;;;;;6.37;50.99;101021.99;1706327;81;22495;-73
2022/02/15 10:38:40;;;;;;;17.67;12.23;;;;;;;6.52;50.14;101024.27;1695041;83;20990;-76
2022/02/15 10:41:17;;;;;;;17.42;11.78;;;;;;;6.57;50.32;101015.23;1706089;83;21042;-75
2022/02/15 10:43:51;;;;;;;20.80;12.93;;;;;;;6.70;49.99;101010.17;1698532;83;21597;-75
2022/02/15 10:46:33;;;;;;;20.00;11.88;;;;;;;6.78;49.80;101013.25;1692365;83;21046;-74
2022/02/15 10:48:58;;;;;;;22.32;11.70;;;;;;;6.83;49.20;101005.95;1673161;84;21870;-76
2022/02/15 10:51:26;;;;;;;22.58;12.47;;;;;;;6.72;49.13;101008.78;1683646;84;21536;-78
2022/02/15 10:53:52;;;;;;;22.32;12.18;;;;;;;6.57;49.19;101003.89;1681295;83;21093;-77
2022/02/15 10:56:19;;;;;;;19.37;12.00;;;;;;;6.51;49.43;100997.17;1663194;85;21025;-74
2022/02/15 10:58:46;;;;;;;17.17;10.98;;;;;;;6.56;49.62;100998.23;1679288;84;21079;-74
2022/02/15 11:01:13;;;;;;;18.80;11.18;;;;;;;6.64;49.26;100993.43;1700822;84;22274;-75
2022/02/15 11:03:41;;;;;;;19.52;11.38;;;;;;;6.72;49.24;100992.56;1695124;84;22169;-74
2022/02/15 11:06:09;;;;;;;19.12;11.18;;;;;;;6.79;49.15;100994.41;1701313;83;21070;-75
2022/02/15 11:08:38;;;;;;;17.62;10.30;;;;;;;6.95;48.58;100982.15;1701400;83;22047;-74
2022/02/15 11:11:19;;;;;;;19.50;10.82;;;;;;;7.02;47.79;100980.02;1701643;84;21062;-73
2022/02/15 11:13:46;;;;;;;19.12;10.38;;;;;;;6.88;47.88;100983.41;1692612;84;22713;-73
2022/02/15 11:16:15;;;;;;;20.05;11.83;;;;;;;6.81;47.76;100980.25;1700683;84;21431;-74
2022/02/15 11:18:43;;;;;;;19.92;11.10;;;;;;;6.73;47.78;100981.12;1701760;84;21032;-73
2022/02/15 11:21:24;;;;;;;20.95;12.37;;;;;;;6.71;48.04;100980.37;1701965;84;21013;-74
2022/02/15 11:23:58;;;;;;;16.50;10.58;;;;;;;6.74;47.98;100974.09;1697713;83;20979;-73
2022/02/15 11:26:41;;;;;;;16.37;10.58;;;;;;;6.70;48.01;100976.52;1701918;84;21857;-73
2022/02/15 11:29:27;;;;;;;18.98;11.57;;;;;;;6.74;48.11;100960.97;1701677;84;21062;-73